This is the latest recevied weather packets stored in our database for station/object K7YVO. If no packets are shown the sender has not sent any weather packets the latest 10 day(s).
| Time | Temp. | Humidity | Pressure | Rain* | Wind** | Luminosity | Snow |
|---|---|---|---|---|---|---|---|
| 1777697037 | 15° C | 73% | 1018.3 hPa | 0 mm | - | 0 W/m² | - |
| 1777696729 | 15° C | 73% | 1018 hPa | 0 mm | - | 0 W/m² | - |
| 1777696427 | 15° C | 72% | 1017.8 hPa | 0 mm | - | 0 W/m² | - |
| 1777696126 | 15.56° C | 71% | 1018 hPa | 0 mm | - | 0 W/m² | - |
| 1777695824 | 15.56° C | 71% | 1017.9 hPa | 0 mm | - | 0 W/m² | - |
| 1777695521 | 16.11° C | 69% | 1017.9 hPa | 0 mm | - | 0 W/m² | - |
| 1777695218 | 16.11° C | 68% | 1017.8 hPa | 0 mm | - | 0 W/m² | - |
| 1777694916 | 16.67° C | 68% | 1017.9 hPa | 0 mm | - | 0 W/m² | - |
| 1777694612 | 16.67° C | 69% | 1017.7 hPa | 0 mm | - | 0 W/m² | - |
| 1777694308 | 17.22° C | 68% | 1017.5 hPa | 0 mm | - | 0 W/m² | - |
| 1777694005 | 17.22° C | 67% | 1017.6 hPa | 0 mm | - | 0 W/m² | - |
| 1777693703 | 17.78° C | 66% | 1017.4 hPa | 0 mm | - | 0 W/m² | - |
| 1777693401 | 17.78° C | 65% | 1017.2 hPa | 0 mm | - | 0 W/m² | - |
| 1777693099 | 18.33° C | 61% | 1017.3 hPa | 0 mm | - | 0 W/m² | - |
| 1777692796 | 18.33° C | 60% | 1017.1 hPa | 0 mm | - | 0 W/m² | - |
| 1777692493 | 18.33° C | 60% | 1017 hPa | 0 mm | - | 0 W/m² | - |
| 1777692189 | 18.89° C | 60% | 1017.1 hPa | 0 mm | - | 1 W/m² | - |
| 1777691887 | 18.89° C | 60% | 1017 hPa | 0 mm | - | 1 W/m² | - |
| 1777691585 | 18.89° C | 62% | 1016.9 hPa | 0 mm | - | 2 W/m² | - |
| 1777691283 | 18.89° C | 63% | 1016.9 hPa | 0 mm | - | 4 W/m² | - |
| 1777690981 | 18.89° C | 64% | 1016.7 hPa | 0 mm | - | 5 W/m² | - |
| 1777690678 | 19.44° C | 63% | 1016.9 hPa | 0 mm | - | 5 W/m² | - |
| 1777690376 | 19.44° C | 63% | 1016.8 hPa | 0 mm | - | 6 W/m² | - |
| 1777690073 | 19.44° C | 62% | 1016.7 hPa | 0 mm | - | 8 W/m² | - |
| 1777689771 | 19.44° C | 62% | 1016.8 hPa | 0 mm | - | 10 W/m² | - |
* Rain latest hour (hover to see other rain measurements)
** Current wind speed in m/s (hover to see current wind gust speed)